createdAt,value
2023-10-23T00:00:20.509Z,98858.59
2023-10-23T00:01:22.200Z,98864.50
2023-10-23T00:02:24.177Z,98864.97
2023-10-23T00:03:25.916Z,98867.31
2023-10-23T00:04:27.740Z,98861.75
2023-10-23T00:05:29.954Z,98863.34
2023-10-23T00:06:32.277Z,98872.47
2023-10-23T00:07:34.124Z,98874.09
2023-10-23T00:08:35.976Z,98873.06
2023-10-23T00:09:37.647Z,98877.63
2023-10-23T00:10:39.298Z,98876.00
2023-10-23T00:11:40.993Z,98884.81
2023-10-23T00:12:42.724Z,98876.28
2023-10-23T00:13:44.312Z,98876.19
2023-10-23T00:14:45.915Z,98871.03
2023-10-23T00:15:47.905Z,98868.34
2023-10-23T00:16:49.568Z,98866.94
2023-10-23T00:17:51.291Z,98874.34
2023-10-23T00:18:53.655Z,98878.06
2023-10-23T00:19:55.314Z,98867.41
2023-10-23T00:20:57.370Z,98873.88
2023-10-23T00:21:59.031Z,98874.69
2023-10-23T00:23:00.602Z,98876.78
2023-10-23T00:24:02.159Z,98876.53
2023-10-23T00:25:04.569Z,98875.50
2023-10-23T00:26:06.915Z,98875.50
2023-10-23T00:27:08.547Z,98880.34
2023-10-23T00:28:10.245Z,98879.81
2023-10-23T00:29:11.901Z,98875.00
2023-10-23T00:30:13.900Z,98880.56
2023-10-23T00:31:15.554Z,98869.84
2023-10-23T00:32:17.267Z,98886.97
2023-10-23T00:33:19.068Z,98884.19
2023-10-23T00:34:20.903Z,98877.59
2023-10-23T00:35:22.826Z,98887.75
2023-10-23T00:36:24.565Z,98884.63
2023-10-23T00:37:26.308Z,98883.34
2023-10-23T00:38:29.972Z,98882.75
2023-10-23T00:39:31.711Z,98884.94
2023-10-23T00:40:33.392Z,98887.03
2023-10-23T00:41:35.029Z,98891.81
2023-10-23T00:42:36.705Z,98885.44
2023-10-23T00:43:38.311Z,98885.44
2023-10-23T00:44:39.909Z,98886.81
2023-10-23T00:45:51.231Z,98886.81
2023-10-23T00:46:53.683Z,98888.56
2023-10-23T00:47:55.808Z,98894.22
2023-10-23T00:48:59.592Z,98884.84
2023-10-23T00:50:01.474Z,98892.28
2023-10-23T00:51:04.302Z,98886.56
2023-10-23T00:52:07.023Z,98895.69
2023-10-23T00:53:09.069Z,98894.38
2023-10-23T00:54:10.796Z,98897.03
2023-10-23T00:55:13.164Z,98896.22
2023-10-23T00:56:15.086Z,98895.19
2023-10-23T00:57:17.025Z,98896.81
2023-10-23T00:58:19.737Z,98890.66
2023-10-23T00:59:22.296Z,98891.25
2023-10-23T01:00:24.198Z,98895.84
2023-10-23T01:01:28.005Z,98903.09
2023-10-23T01:02:29.947Z,98900.19
2023-10-23T01:03:32.611Z,98898.91
2023-10-23T01:04:34.237Z,98888.00
2023-10-23T01:05:38.325Z,98891.00
2023-10-23T01:06:40.308Z,98897.63
2023-10-23T01:07:41.990Z,98889.38
2023-10-23T01:08:44.226Z,98894.28
2023-10-23T01:09:45.927Z,98900.19
2023-10-23T01:10:48.364Z,98899.13
2023-10-23T01:11:50.133Z,98895.97
2023-10-23T01:12:54.615Z,98900.50
2023-10-23T01:13:56.275Z,98902.13
2023-10-23T01:14:57.917Z,98891.94
2023-10-23T01:15:59.492Z,98899.75
2023-10-23T01:17:01.153Z,98904.03
2023-10-23T01:18:04.140Z,98902.75
2023-10-23T01:19:06.155Z,98901.13
2023-10-23T01:20:10.792Z,98900.88
2023-10-23T01:21:12.416Z,98898.78
2023-10-23T01:22:14.000Z,98898.84
2023-10-23T01:23:15.729Z,98903.13
2023-10-23T01:24:18.084Z,98899.44
2023-10-23T01:25:19.687Z,98896.78
2023-10-23T01:26:21.317Z,98907.44
2023-10-23T01:27:22.959Z,98908.00
2023-10-23T01:28:24.591Z,98910.19
2023-10-23T01:29:26.184Z,98908.66
2023-10-23T01:30:27.788Z,98902.75
2023-10-23T01:31:29.359Z,98906.00
2023-10-23T01:32:30.990Z,98896.84
2023-10-23T01:33:32.700Z,98906.47
2023-10-23T01:34:34.364Z,98906.47
2023-10-23T01:35:36.012Z,98903.00
2023-10-23T01:36:39.151Z,98896.06
2023-10-23T01:37:43.919Z,98901.13
2023-10-23T01:38:45.545Z,98895.47
2023-10-23T01:39:47.153Z,98900.34
2023-10-23T01:40:48.810Z,98892.56
2023-10-23T01:41:50.427Z,98895.81
2023-10-23T01:42:52.108Z,98897.41
2023-10-23T01:43:53.707Z,98898.47
2023-10-23T01:44:58.805Z,98894.19
2023-10-23T01:46:00.879Z,98888.19
2023-10-23T01:47:02.896Z,98892.56
2023-10-23T01:48:05.081Z,98897.91
2023-10-23T01:49:06.798Z,98886.69
2023-10-23T01:50:08.670Z,98889.91
2023-10-23T01:51:10.781Z,98883.66
2023-10-23T01:52:12.379Z,98889.09
2023-10-23T01:53:14.525Z,98888.28
2023-10-23T01:54:16.225Z,98884.00
2023-10-23T01:55:18.171Z,98884.56
2023-10-23T01:56:19.763Z,98884.00
2023-10-23T01:57:21.869Z,98895.25
2023-10-23T01:58:23.473Z,98891.91
2023-10-23T01:59:25.061Z,98894.31
2023-10-23T02:00:26.963Z,98890.59
2023-10-23T02:01:28.911Z,98893.88
2023-10-23T02:02:31.274Z,98883.84
2023-10-23T02:03:33.334Z,98883.84
2023-10-23T02:04:39.993Z,98886.94
2023-10-23T02:05:41.873Z,98881.63
2023-10-23T02:06:43.692Z,98889.84
2023-10-23T02:07:45.378Z,98885.00
2023-10-23T02:08:47.042Z,98900.66
2023-10-23T02:09:48.663Z,98895.50
2023-10-23T02:10:50.264Z,98894.72
2023-10-23T02:11:51.868Z,98891.47
2023-10-23T02:12:53.563Z,98884.69
2023-10-23T02:13:55.382Z,98895.66
2023-10-23T02:14:57.552Z,98890.81
2023-10-23T02:15:59.277Z,98899.72
2023-10-23T02:17:00.944Z,98889.53
2023-10-23T02:18:02.674Z,98895.03
2023-10-23T02:19:04.675Z,98885.50
2023-10-23T02:20:06.703Z,98898.59
2023-10-23T02:21:08.586Z,98893.75
2023-10-23T02:22:10.238Z,98887.28
2023-10-23T02:23:11.807Z,98904.88
2023-10-23T02:24:13.392Z,98903.19
2023-10-23T02:25:17.852Z,98901.00
2023-10-23T02:26:19.760Z,98901.72
2023-10-23T02:27:21.421Z,98895.97
2023-10-23T02:28:23.182Z,98904.03
2023-10-23T02:29:24.795Z,98893.91
2023-10-23T02:30:26.477Z,98900.44
2023-10-23T02:31:28.160Z,98870.31
2023-10-23T02:32:29.850Z,98904.38
2023-10-23T02:33:32.004Z,98906.91
2023-10-23T02:34:34.338Z,98908.00
2023-10-23T02:35:37.573Z,98903.72
2023-10-23T02:36:39.217Z,98895.44
2023-10-23T02:37:40.828Z,98901.16
2023-10-23T02:38:43.341Z,98904.47
2023-10-23T02:39:45.060Z,98903.41
2023-10-23T02:40:53.834Z,98903.50
2023-10-23T02:41:55.429Z,98903.84
2023-10-23T02:42:57.134Z,98902.78
2023-10-23T02:43:58.940Z,98901.19
2023-10-23T02:45:00.599Z,98908.94
2023-10-23T02:46:03.036Z,98899.31
2023-10-23T02:47:04.891Z,98906.25
2023-10-23T02:48:06.744Z,98901.47
2023-10-23T02:49:08.517Z,98901.75
2023-10-23T02:50:10.545Z,98900.38
2023-10-23T02:51:12.145Z,98901.47
2023-10-23T02:52:14.127Z,98865.41
2023-10-23T02:53:15.727Z,98899.38
2023-10-23T02:54:17.543Z,98905.28
2023-10-23T02:55:19.271Z,98903.66
2023-10-23T02:56:20.962Z,98904.13
2023-10-23T02:57:22.621Z,98903.59
2023-10-23T02:58:24.257Z,98906.00
2023-10-23T02:59:25.874Z,98903.59
2023-10-23T03:00:27.724Z,98912.13
2023-10-23T03:01:29.402Z,98910.53
2023-10-23T03:02:31.024Z,98906.50
2023-10-23T03:03:32.699Z,98902.94
2023-10-23T03:04:34.661Z,98895.50
2023-10-23T03:05:36.308Z,98909.88
2023-10-23T03:06:37.983Z,98909.97
2023-10-23T03:07:39.589Z,98912.13
2023-10-23T03:08:41.699Z,98908.03
2023-10-23T03:09:43.446Z,98904.22
2023-10-23T03:10:45.096Z,98905.84
2023-10-23T03:11:46.730Z,98905.38
2023-10-23T03:12:48.401Z,98892.84
2023-10-23T03:13:51.520Z,98915.06
2023-10-23T03:14:53.351Z,98903.75
2023-10-23T03:15:55.023Z,98914.50
2023-10-23T03:16:56.768Z,98915.53
2023-10-23T03:17:58.598Z,98909.41
2023-10-23T03:19:00.587Z,98915.88
2023-10-23T03:20:02.337Z,98915.88
2023-10-23T03:21:04.555Z,98903.28
2023-10-23T03:22:06.134Z,98919.66
2023-10-23T03:23:07.838Z,98920.69
2023-10-23T03:24:09.854Z,98921.25
2023-10-23T03:25:11.554Z,98922.31
2023-10-23T03:26:13.210Z,98925.53
2023-10-23T03:27:14.900Z,98918.84
2023-10-23T03:28:16.481Z,98922.31
2023-10-23T03:29:18.260Z,98924.50
2023-10-23T03:30:19.990Z,98928.78
2023-10-23T03:31:21.688Z,98922.41
2023-10-23T03:32:23.402Z,98924.50
2023-10-23T03:33:25.015Z,98924.25
2023-10-23T03:34:26.685Z,98925.53
2023-10-23T03:35:28.272Z,98926.59
2023-10-23T03:36:30.022Z,98920.94
2023-10-23T03:37:32.008Z,98929.72
2023-10-23T03:38:33.637Z,98929.97
2023-10-23T03:39:35.946Z,98928.13
2023-10-23T03:40:38.426Z,98923.06
2023-10-23T03:41:39.996Z,98925.44
2023-10-23T03:42:41.651Z,98917.63
2023-10-23T03:43:43.333Z,98925.38
2023-10-23T03:44:44.967Z,98922.72
2023-10-23T03:45:46.605Z,98921.81
2023-10-23T03:46:48.301Z,98927.97
2023-10-23T03:47:50.006Z,98916.09
2023-10-23T03:48:53.446Z,98920.94
2023-10-23T03:49:55.152Z,98916.66
2023-10-23T03:51:00.858Z,98915.75
2023-10-23T03:52:02.442Z,98923.44
2023-10-23T03:53:04.078Z,98913.50
2023-10-23T03:54:05.739Z,98909.47
2023-10-23T03:55:07.693Z,98917.44
2023-10-23T03:56:09.354Z,98919.06
2023-10-23T03:57:10.980Z,98920.69
2023-10-23T03:58:12.550Z,98909.22
2023-10-23T03:59:14.178Z,98912.94
2023-10-23T04:00:16.224Z,98912.13
2023-10-23T04:01:17.883Z,98924.88
2023-10-23T04:02:19.460Z,98917.69
2023-10-23T04:03:21.271Z,98908.59
2023-10-23T04:04:23.050Z,98913.41
2023-10-23T04:05:24.747Z,98918.16
2023-10-23T04:06:26.404Z,98913.09
2023-10-23T04:07:28.011Z,98916.47
2023-10-23T04:08:29.592Z,98911.63
2023-10-23T04:09:32.616Z,98910.16
2023-10-23T04:10:34.274Z,98915.31
2023-10-23T04:11:35.907Z,98916.13
2023-10-23T04:12:37.763Z,98918.53
2023-10-23T04:13:39.394Z,98918.06
2023-10-23T04:14:40.976Z,98909.72
2023-10-23T04:15:53.128Z,98908.81
2023-10-23T04:16:54.749Z,98919.81
2023-10-23T04:17:56.384Z,98885.72
2023-10-23T04:18:58.045Z,98908.81
2023-10-23T04:19:59.647Z,98918.41
2023-10-23T04:21:09.419Z,98919.69
2023-10-23T04:22:11.040Z,98915.41
2023-10-23T04:23:12.630Z,98925.25
2023-10-23T04:24:14.798Z,98910.78
2023-10-23T04:25:19.008Z,98908.13
2023-10-23T04:26:20.650Z,98907.47
2023-10-23T04:27:22.327Z,98920.78
2023-10-23T04:28:24.022Z,98912.47
2023-10-23T04:29:25.604Z,98915.34
2023-10-23T04:30:27.273Z,98913.06
2023-10-23T04:31:28.989Z,98918.88
2023-10-23T04:32:31.068Z,98919.81
2023-10-23T04:33:33.456Z,98925.47
2023-10-23T04:34:37.331Z,98923.06
2023-10-23T04:35:38.921Z,98924.09
2023-10-23T04:36:40.706Z,98922.56
2023-10-23T04:37:42.280Z,98926.03
2023-10-23T04:38:43.983Z,98926.59
2023-10-23T04:39:45.902Z,98923.72
2023-10-23T04:40:48.082Z,98924.53
2023-10-23T04:41:49.764Z,98926.94
2023-10-23T04:42:51.398Z,98929.38
2023-10-23T04:43:53.045Z,98920.47
2023-10-23T04:44:54.734Z,98917.25
2023-10-23T04:45:58.162Z,98927.19
2023-10-23T04:46:59.898Z,98925.34
2023-10-23T04:48:01.634Z,98924.53
2023-10-23T04:49:03.779Z,98920.94
2023-10-23T04:50:08.506Z,98923.38
2023-10-23T04:51:11.122Z,98921.75
2023-10-23T04:52:12.727Z,98925.09
2023-10-23T04:53:14.356Z,98928.66
2023-10-23T04:54:15.915Z,98933.50
2023-10-23T04:55:17.806Z,98933.63
2023-10-23T04:56:19.434Z,98935.25
2023-10-23T04:57:21.052Z,98942.41
2023-10-23T04:58:22.776Z,98940.56
2023-10-23T04:59:25.593Z,98942.19
2023-10-23T05:00:27.785Z,98946.47
2023-10-23T05:01:29.538Z,98949.66
2023-10-23T05:02:31.196Z,98955.78
2023-10-23T05:03:33.298Z,98949.13
2023-10-23T05:04:35.123Z,98954.19
2023-10-23T05:05:37.569Z,98961.69
2023-10-23T05:06:39.611Z,98962.50
2023-10-23T05:07:41.265Z,98961.69
2023-10-23T05:08:42.937Z,98964.59
2023-10-23T05:09:44.628Z,98960.88
2023-10-23T05:10:46.299Z,98967.59
2023-10-23T05:11:47.863Z,98968.41
2023-10-23T05:12:51.089Z,98966.56
2023-10-23T05:13:53.183Z,98952.31
2023-10-23T05:14:55.110Z,98962.03
2023-10-23T05:16:06.335Z,98963.66
2023-10-23T05:17:08.514Z,98964.69
2023-10-23T05:18:10.108Z,98963.88
2023-10-23T05:19:11.794Z,98971.19
2023-10-23T05:20:13.814Z,98969.91
2023-10-23T05:21:15.714Z,98977.41
2023-10-23T05:22:17.420Z,98984.94
2023-10-23T05:23:19.006Z,98969.66
2023-10-23T05:24:20.573Z,98978.91
2023-10-23T05:25:22.182Z,98989.63
2023-10-23T05:26:23.772Z,98979.22
2023-10-23T05:27:25.902Z,98982.00
2023-10-23T05:28:27.558Z,98991.34
2023-10-23T05:29:29.108Z,98983.91
2023-10-23T05:30:30.729Z,98985.88
2023-10-23T05:31:32.426Z,98979.28
2023-10-23T05:32:36.174Z,98982.50
2023-10-23T05:33:38.302Z,98978.28
2023-10-23T05:34:40.090Z,98983.16
2023-10-23T05:35:41.647Z,98981.78
2023-10-23T05:36:43.256Z,98981.06
2023-10-23T05:37:44.913Z,98980.34
2023-10-23T05:38:46.680Z,98979.63
2023-10-23T05:39:48.312Z,98984.47
2023-10-23T05:40:57.263Z,98987.00
2023-10-23T05:41:58.881Z,98981.72
2023-10-23T05:43:00.675Z,98986.91
2023-10-23T05:44:02.272Z,98992.88
2023-10-23T05:45:04.406Z,98991.59
2023-10-23T05:46:06.514Z,98996.75
2023-10-23T05:47:08.248Z,98997.09
2023-10-23T05:48:09.836Z,98994.19
2023-10-23T05:49:11.650Z,98995.56
2023-10-23T05:50:13.259Z,99002.81
2023-10-23T05:51:14.839Z,98999.09
2023-10-23T05:52:16.446Z,99005.34
2023-10-23T05:53:18.024Z,99011.25
2023-10-23T05:54:19.578Z,99008.88
2023-10-23T05:55:22.175Z,99008.88
2023-10-23T05:56:23.765Z,99018.28
2023-10-23T05:57:25.343Z,99010.59
2023-10-23T05:58:26.928Z,99003.41
2023-10-23T05:59:28.502Z,99016.56
2023-10-23T06:00:30.223Z,99010.97
2023-10-23T06:01:31.833Z,99010.16
2023-10-23T06:02:33.506Z,99011.56
2023-10-23T06:03:35.887Z,99015.59
2023-10-23T06:04:37.873Z,99016.41
2023-10-23T06:05:43.291Z,99008.97
2023-10-23T06:06:45.014Z,99016.47
2023-10-23T06:07:46.833Z,99013.06
2023-10-23T06:08:48.586Z,99019.28
2023-10-23T06:09:50.203Z,99013.19
2023-10-23T06:10:51.896Z,99016.50
2023-10-23T06:11:53.525Z,99020.28
2023-10-23T06:12:55.131Z,99008.06
2023-10-23T06:13:56.796Z,99018.31
2023-10-23T06:15:00.173Z,99026.88
2023-10-23T06:16:06.299Z,99016.53
2023-10-23T06:17:08.913Z,99003.50
2023-10-23T06:18:10.506Z,99018.00
2023-10-23T06:19:12.052Z,99016.75
2023-10-23T06:20:13.723Z,99012.06
2023-10-23T06:21:15.377Z,99005.44
2023-10-23T06:22:17.038Z,99015.66
2023-10-23T06:23:18.585Z,99019.22
2023-10-23T06:24:20.201Z,99014.47
2023-10-23T06:25:21.802Z,99016.66
2023-10-23T06:26:24.606Z,99018.03
2023-10-23T06:27:26.311Z,99014.63
2023-10-23T06:28:28.243Z,99024.59
2023-10-23T06:29:29.829Z,99024.41
2023-10-23T06:30:31.603Z,99014.31
2023-10-23T06:31:33.422Z,99027.75
2023-10-23T06:32:35.856Z,99027.03
2023-10-23T06:33:40.224Z,99021.72
2023-10-23T06:34:41.983Z,99025.00
2023-10-23T06:35:43.633Z,99012.44
2023-10-23T06:36:45.245Z,99018.97
2023-10-23T06:37:46.953Z,99016.34
2023-10-23T06:38:48.603Z,99015.31
2023-10-23T06:39:50.364Z,99012.97
2023-10-23T06:40:52.018Z,99012.47
2023-10-23T06:41:53.831Z,99019.75
2023-10-23T06:42:55.445Z,99008.53
2023-10-23T06:43:57.006Z,99012.88
2023-10-23T06:44:58.691Z,99018.56
2023-10-23T06:46:02.109Z,99008.13
2023-10-23T06:47:04.622Z,99011.16
2023-10-23T06:48:06.539Z,99009.59
2023-10-23T06:49:08.301Z,99014.97
2023-10-23T06:50:11.891Z,99006.44
2023-10-23T06:51:14.727Z,99003.25
2023-10-23T06:52:16.437Z,99007.53
2023-10-23T06:53:18.493Z,99003.84
2023-10-23T06:54:22.868Z,99005.19
2023-10-23T06:55:25.863Z,99002.50
2023-10-23T06:56:27.515Z,99007.78
2023-10-23T06:57:29.087Z,99012.84
2023-10-23T06:58:30.716Z,99015.44
2023-10-23T06:59:32.354Z,99004.00
2023-10-23T07:00:33.946Z,99004.94
2023-10-23T07:01:44.334Z,99005.03
2023-10-23T07:02:49.973Z,99005.81
2023-10-23T07:03:52.258Z,99008.53
2023-10-23T07:04:54.161Z,99000.50
2023-10-23T07:05:55.823Z,99005.84
2023-10-23T07:06:57.797Z,99005.28
2023-10-23T07:07:59.402Z,99001.06
2023-10-23T07:09:01.057Z,99002.09
2023-10-23T07:10:04.848Z,98999.25
2023-10-23T07:11:17.354Z,99002.38
2023-10-23T07:12:18.983Z,99007.44
2023-10-23T07:13:23.076Z,99000.94
2023-10-23T07:14:25.020Z,99005.22
2023-10-23T07:15:26.713Z,98999.91
2023-10-23T07:16:28.513Z,98998.50
2023-10-23T07:17:30.885Z,98996.06
2023-10-23T07:18:32.708Z,98996.78
2023-10-23T07:19:34.419Z,98997.56
2023-10-23T07:20:35.977Z,98986.06
2023-10-23T07:21:38.001Z,98985.28
2023-10-23T07:22:39.595Z,98993.50
2023-10-23T07:23:41.252Z,98988.34
2023-10-23T07:24:42.899Z,98987.56
2023-10-23T07:25:44.537Z,98986.91
2023-10-23T07:26:46.169Z,98979.13
2023-10-23T07:27:48.450Z,98983.56
2023-10-23T07:28:50.254Z,98991.34
2023-10-23T07:29:52.216Z,98984.22
2023-10-23T07:30:56.237Z,98991.56
2023-10-23T07:31:57.831Z,98980.94
2023-10-23T07:33:00.785Z,98984.09
2023-10-23T07:34:04.869Z,98985.81
2023-10-23T07:35:09.372Z,98975.25
2023-10-23T07:36:12.658Z,98975.28
2023-10-23T07:37:19.460Z,98975.06
2023-10-23T07:38:21.295Z,98969.84
2023-10-23T07:39:22.850Z,98975.13
2023-10-23T07:40:24.461Z,98975.53
2023-10-23T07:41:26.150Z,98978.81
2023-10-23T07:42:27.793Z,98979.88
2023-10-23T07:43:30.278Z,98978.44
2023-10-23T07:44:31.883Z,98972.00
2023-10-23T07:45:38.198Z,98974.53
2023-10-23T07:46:40.331Z,98977.53
2023-10-23T07:47:42.105Z,98975.38
2023-10-23T07:48:43.796Z,98979.22
2023-10-23T07:49:45.906Z,98976.63
2023-10-23T07:50:47.442Z,98978.22
2023-10-23T07:51:49.111Z,98980.47
2023-10-23T07:52:51.731Z,98981.47
2023-10-23T07:53:53.289Z,98984.78
2023-10-23T07:54:54.995Z,98986.91
2023-10-23T07:55:56.648Z,98982.44
2023-10-23T07:56:58.692Z,98982.03
2023-10-23T07:58:01.411Z,98983.56
2023-10-23T07:59:03.541Z,98976.38
2023-10-23T08:00:07.367Z,98980.91
2023-10-23T08:01:11.482Z,98981.78
2023-10-23T08:02:13.268Z,98983.38
2023-10-23T08:03:15.080Z,98981.88
2023-10-23T08:04:17.853Z,98978.19
2023-10-23T08:05:19.688Z,98979.28
2023-10-23T08:06:21.400Z,98973.25
2023-10-23T08:07:23.027Z,98980.63
2023-10-23T08:08:24.635Z,98975.72
2023-10-23T08:09:26.377Z,98982.56
2023-10-23T08:10:28.012Z,98980.66
2023-10-23T08:11:29.609Z,98985.22
2023-10-23T08:12:31.266Z,98985.59
2023-10-23T08:13:33.795Z,98976.56
2023-10-23T08:14:35.466Z,98985.66
2023-10-23T08:15:39.418Z,98980.81
2023-10-23T08:16:41.158Z,98980.69
2023-10-23T08:17:43.339Z,98980.13
2023-10-23T08:18:45.083Z,98974.72
2023-10-23T08:19:46.896Z,98972.53
2023-10-23T08:20:48.630Z,98976.75
2023-10-23T08:21:50.368Z,98968.81
2023-10-23T08:22:52.011Z,98975.34
2023-10-23T08:23:59.492Z,98974.06
2023-10-23T08:25:01.198Z,98975.78
2023-10-23T08:26:02.911Z,98975.56
2023-10-23T08:27:04.689Z,98973.25
2023-10-23T08:28:06.312Z,98975.84
2023-10-23T08:29:08.036Z,98973.59
2023-10-23T08:30:10.152Z,98974.31
2023-10-23T08:31:24.652Z,98970.69
2023-10-23T08:32:34.314Z,98968.53
2023-10-23T08:33:39.665Z,98970.09
2023-10-23T08:34:41.349Z,98957.75
2023-10-23T08:35:42.962Z,98964.03
2023-10-23T08:36:44.666Z,98975.47
2023-10-23T08:37:46.716Z,98968.47
2023-10-23T08:38:48.626Z,98967.00
2023-10-23T08:39:50.231Z,98968.22
2023-10-23T08:40:52.168Z,98963.91
2023-10-23T08:41:55.571Z,98962.19
2023-10-23T08:42:57.261Z,98965.94
2023-10-23T08:43:59.235Z,98960.28
2023-10-23T08:45:01.145Z,98956.28
2023-10-23T08:46:02.893Z,98958.94
2023-10-23T08:47:05.068Z,98963.03
2023-10-23T08:48:06.967Z,98958.63
2023-10-23T08:49:08.782Z,98951.53
2023-10-23T08:50:11.617Z,98945.03
2023-10-23T08:51:15.799Z,98943.56
2023-10-23T08:52:20.692Z,98957.56
2023-10-23T08:53:25.668Z,98943.78
2023-10-23T08:54:28.565Z,98953.22
2023-10-23T08:55:30.385Z,98952.06
2023-10-23T08:56:40.363Z,98946.56
2023-10-23T08:57:53.723Z,98944.81
2023-10-23T08:59:00.787Z,98946.78
2023-10-23T09:00:02.575Z,98944.38
2023-10-23T09:01:04.837Z,98946.59
2023-10-23T09:02:06.808Z,98942.88
2023-10-23T09:03:11.267Z,98941.72
2023-10-23T09:04:13.585Z,98940.25
2023-10-23T09:05:15.652Z,98947.44
2023-10-23T09:06:19.367Z,98928.28
2023-10-23T09:07:21.056Z,98941.72
2023-10-23T09:08:22.682Z,98939.72
2023-10-23T09:09:25.380Z,98951.84
2023-10-23T09:10:27.488Z,98941.44
2023-10-23T09:11:39.786Z,98950.38
2023-10-23T09:12:41.706Z,98947.31
2023-10-23T09:13:43.396Z,98947.50
2023-10-23T09:14:45.228Z,98942.84
2023-10-23T09:15:52.855Z,98942.97
2023-10-23T09:16:57.050Z,98945.28
2023-10-23T09:18:00.105Z,98949.91
2023-10-23T09:19:01.852Z,98930.41
2023-10-23T09:20:20.198Z,98939.81
2023-10-23T09:21:23.043Z,98931.94
2023-10-23T09:22:29.355Z,98929.47
2023-10-23T09:23:31.012Z,98931.56
2023-10-23T09:24:32.904Z,98934.25
2023-10-23T09:25:34.910Z,98926.88
2023-10-23T09:26:36.524Z,98932.47
2023-10-23T09:27:38.147Z,98921.59
2023-10-23T09:28:39.715Z,98932.16
2023-10-23T09:29:41.468Z,98921.84
2023-10-23T09:30:43.720Z,98917.94
2023-10-23T09:31:45.451Z,98923.09
2023-10-23T09:32:54.542Z,98909.78
2023-10-23T09:33:56.696Z,98915.22
2023-10-23T09:34:58.447Z,98915.44
2023-10-23T09:36:02.244Z,98908.53
2023-10-23T09:37:04.117Z,98912.78
2023-10-23T09:38:16.306Z,98916.06
2023-10-23T09:39:23.787Z,98911.03
2023-10-23T09:40:25.797Z,98914.19
2023-10-23T09:41:28.755Z,98916.00
2023-10-23T09:42:33.396Z,98921.50
2023-10-23T09:43:35.850Z,98911.50
2023-10-23T09:44:40.084Z,98910.09
2023-10-23T09:45:43.510Z,98916.38
2023-10-23T09:46:49.430Z,98905.31
2023-10-23T09:47:56.067Z,98905.47
2023-10-23T09:49:01.715Z,98902.91
2023-10-23T09:50:05.125Z,98906.75
2023-10-23T09:51:08.608Z,98909.19
2023-10-23T09:52:11.322Z,98906.22
2023-10-23T09:53:14.283Z,98916.34
2023-10-23T09:54:19.017Z,98903.72
2023-10-23T09:55:24.229Z,98903.94
2023-10-23T09:56:31.868Z,98894.53
2023-10-23T09:57:35.248Z,98901.22
2023-10-23T09:58:41.885Z,98891.38
2023-10-23T09:59:49.785Z,98892.75
2023-10-23T10:00:57.015Z,98883.63
2023-10-23T10:02:01.958Z,98885.03
2023-10-23T10:03:09.572Z,98879.78
2023-10-23T10:04:21.863Z,98877.22
2023-10-23T10:05:39.091Z,98880.97
2023-10-23T10:06:46.870Z,98877.91
2023-10-23T10:08:04.383Z,98889.38
2023-10-23T10:09:13.446Z,98887.53
2023-10-23T10:10:15.998Z,98884.16
2023-10-23T10:11:19.435Z,98882.66
2023-10-23T10:12:22.367Z,98883.09
2023-10-23T10:13:24.790Z,98877.22
2023-10-23T10:14:28.461Z,98877.88
2023-10-23T10:15:32.468Z,98880.22
2023-10-23T10:16:35.089Z,98875.22
2023-10-23T10:17:38.367Z,98875.97
2023-10-23T10:18:40.680Z,98875.47
2023-10-23T10:19:42.873Z,98877.50
2023-10-23T10:20:48.389Z,98874.31
2023-10-23T10:22:16.091Z,98865.97
2023-10-23T10:23:19.491Z,98863.66
2023-10-23T10:24:22.109Z,98862.75
2023-10-23T10:25:26.285Z,98862.50
2023-10-23T10:26:28.134Z,98866.97
2023-10-23T10:27:29.879Z,98861.28
2023-10-23T10:28:31.680Z,98856.56
2023-10-23T10:29:33.368Z,98854.69
2023-10-23T10:30:48.083Z,98841.13
2023-10-23T10:32:13.934Z,98854.63
2023-10-23T10:34:24.350Z,98848.59
2023-10-23T10:34:46.446Z,98845.09
2023-10-23T10:35:51.447Z,98851.41
2023-10-23T10:36:54.725Z,98847.75
2023-10-23T10:38:00.666Z,98841.97
2023-10-23T10:39:02.314Z,98839.72
2023-10-23T10:40:06.159Z,98842.88
2023-10-23T10:41:14.014Z,98840.41
2023-10-23T10:42:23.139Z,98841.28
2023-10-23T10:43:38.812Z,98835.97
2023-10-23T10:45:03.117Z,98832.38
2023-10-23T10:46:24.613Z,98827.81
2023-10-23T10:47:38.357Z,98832.88
2023-10-23T10:48:45.317Z,98833.66
2023-10-23T10:49:48.141Z,98823.09
2023-10-23T10:50:49.743Z,98822.22
2023-10-23T10:51:52.102Z,98814.66
2023-10-23T10:52:53.710Z,98826.44
2023-10-23T10:54:18.233Z,98819.94
2023-10-23T10:55:19.938Z,98828.63
2023-10-23T10:56:21.824Z,98824.91
2023-10-23T10:57:23.636Z,98823.69
2023-10-23T10:58:25.800Z,98822.34
2023-10-23T10:59:27.763Z,98820.72
2023-10-23T11:00:30.972Z,98823.03
2023-10-23T11:01:34.147Z,98826.69
2023-10-23T11:02:36.205Z,98824.19
2023-10-23T11:03:38.248Z,98819.38
2023-10-23T11:04:40.061Z,98816.97
2023-10-23T11:05:45.827Z,98824.44
2023-10-23T11:06:47.450Z,98820.53
2023-10-23T11:07:50.772Z,98813.84
2023-10-23T11:08:52.920Z,98815.78
2023-10-23T11:09:55.330Z,98817.63
2023-10-23T11:11:05.946Z,98814.47
2023-10-23T11:12:08.134Z,98816.38
2023-10-23T11:13:14.603Z,98814.44
2023-10-23T11:14:16.694Z,98818.06
2023-10-23T11:15:19.335Z,98813.03
2023-10-23T11:16:21.912Z,98817.53
2023-10-23T11:17:24.402Z,98813.47
2023-10-23T11:18:26.623Z,98808.75
2023-10-23T11:19:28.855Z,98808.44
2023-10-23T11:20:32.598Z,98811.06
2023-10-23T11:21:34.385Z,98806.06
2023-10-23T11:22:39.446Z,98804.72
2023-10-23T11:23:41.064Z,98798.81
2023-10-23T11:24:43.603Z,98803.78
2023-10-23T11:25:49.917Z,98798.44
2023-10-23T11:26:51.462Z,98803.31
2023-10-23T11:27:53.487Z,98800.78
2023-10-23T11:28:55.136Z,98806.47
2023-10-23T11:29:56.861Z,98809.34
2023-10-23T11:31:01.375Z,98798.19
2023-10-23T11:32:05.118Z,98796.31
2023-10-23T11:33:08.837Z,98804.09
2023-10-23T11:34:13.313Z,98796.69
2023-10-23T11:35:14.910Z,98803.91
2023-10-23T11:36:18.528Z,98804.09
2023-10-23T11:37:20.671Z,98804.44
2023-10-23T11:38:25.353Z,98807.34
2023-10-23T11:39:32.117Z,98797.13
2023-10-23T11:40:36.093Z,98804.78
2023-10-23T11:41:37.716Z,98792.16
2023-10-23T11:42:50.819Z,98796.63
2023-10-23T11:44:01.298Z,98805.91
2023-10-23T11:45:03.969Z,98801.66
2023-10-23T11:46:06.044Z,98797.78
2023-10-23T11:47:09.141Z,98798.97
2023-10-23T11:48:13.413Z,98791.25
2023-10-23T11:49:19.628Z,98800.97
2023-10-23T11:50:23.038Z,98797.06
2023-10-23T11:51:25.372Z,98790.19
2023-10-23T11:52:27.008Z,98782.13
2023-10-23T11:53:34.160Z,98794.47
2023-10-23T11:54:35.744Z,98799.59
2023-10-23T11:55:39.164Z,98784.59
2023-10-23T11:56:43.900Z,98794.69
2023-10-23T11:57:52.099Z,98792.31
2023-10-23T11:58:56.102Z,98781.16
2023-10-23T11:59:57.720Z,98781.31
2023-10-23T12:00:59.418Z,98780.09
2023-10-23T12:02:02.883Z,98782.00
2023-10-23T12:03:07.729Z,98789.03
2023-10-23T12:04:09.782Z,98769.88
2023-10-23T12:05:13.444Z,98787.13
2023-10-23T12:06:15.211Z,98777.53
2023-10-23T12:07:16.885Z,98784.09
2023-10-23T12:08:18.545Z,98775.47
2023-10-23T12:09:20.273Z,98784.72
2023-10-23T12:10:26.694Z,98780.22
2023-10-23T12:11:29.849Z,98779.28
2023-10-23T12:12:31.413Z,98784.91
2023-10-23T12:13:33.146Z,98787.94
2023-10-23T12:14:34.743Z,98782.50
2023-10-23T12:15:36.337Z,98783.75
2023-10-23T12:16:38.046Z,98779.44
2023-10-23T12:17:40.487Z,98784.88
2023-10-23T12:18:42.826Z,98778.03